Time;durP1;ratioP1;P1;durP2;ratioP2;P2;SDS_P1;SDS_P2;PMS_P1;PMS_P2;Temp;Humidity;BMP_temperature;BMP_pressure;BME280_temperature;BME280_humidity;BME280_pressure;Samples;Min_cycle;Max_cycle;Signal;HPM_P1;HPM_P2
2021/06/20 00:08:26;;;;;;;12.27;6.97;;;;;;;30.50;59.79;100832.72;5121822;27;66670;-40
2021/06/20 00:11:16;;;;;;;13.35;6.93;;;;;;;30.56;58.18;100836.41;5114386;27;70430;-40
2021/06/20 00:13:47;;;;;;;6.47;5.82;;;;;;;30.62;58.13;100832.84;5115474;27;65869;-40
2021/06/20 00:16:38;;;;;;;6.82;6.28;;;;;;;30.62;61.93;100840.97;5115888;27;69941;-40
2021/06/20 00:19:10;;;;;;;7.40;6.32;;;;;;;30.70;59.84;100835.28;5118788;27;66171;-41
2021/06/20 00:21:41;;;;;;;8.68;6.90;;;;;;;30.72;59.77;100838.59;5103158;27;70432;-40
2021/06/20 00:24:31;;;;;;;8.30;6.18;;;;;;;30.77;59.06;100842.53;5118867;27;66348;-39
2021/06/20 00:29:52;;;;;;;6.50;6.00;;;;;;;30.88;59.51;100848.09;5124386;27;67132;-41
2021/06/20 00:32:42;;;;;;;6.32;5.85;;;;;;;30.88;61.80;100844.56;5127219;27;70386;-41
2021/06/20 00:38:22;;;;;;;7.55;5.93;;;;;;;30.98;60.62;100847.59;5126333;27;69020;-41
2021/06/20 00:40:53;;;;;;;13.10;6.28;;;;;;;31.04;60.37;100844.00;5112552;27;66043;-39
2021/06/20 00:43:24;;;;;;;7.57;5.85;;;;;;;31.03;61.30;100834.19;5106183;27;69611;-40
2021/06/20 00:45:56;;;;;;;6.38;5.85;;;;;;;31.01;60.16;100839.03;5115949;27;66097;-40
2021/06/20 00:48:27;;;;;;;13.05;6.25;;;;;;;31.11;60.01;100847.44;5126084;27;69314;-41
2021/06/20 00:50:59;;;;;;;19.77;6.63;;;;;;;31.17;60.30;100848.44;5122344;27;65247;-41
2021/06/20 00:53:30;;;;;;;11.07;5.60;;;;;;;31.20;61.78;100844.47;5096298;27;68279;-40
2021/06/20 00:56:20;;;;;;;8.43;5.45;;;;;;;31.20;62.19;100848.00;5109143;27;65939;-40
2021/06/20 00:59:02;;;;;;;11.98;6.93;;;;;;;31.23;61.62;100862.97;5117081;27;69104;-41
2021/06/20 01:01:34;;;;;;;5.87;5.47;;;;;;;31.21;62.38;100849.66;5116858;27;65469;-41
2021/06/20 01:04:06;;;;;;;8.45;5.72;;;;;;;31.28;61.01;100863.97;5120924;27;70146;-41
2021/06/20 01:06:55;;;;;;;7.85;5.63;;;;;;;31.27;62.78;100864.22;5116759;27;66649;-40
2021/06/20 01:09:26;;;;;;;12.02;6.47;;;;;;;31.33;61.42;100874.16;5116929;27;69049;-40
2021/06/20 01:12:19;;;;;;;8.80;5.80;;;;;;;31.31;62.37;100859.97;5116943;27;66274;-41
2021/06/20 01:14:51;;;;;;;6.10;5.60;;;;;;;31.31;61.68;100862.69;5125529;27;69370;-40
2021/06/20 01:17:23;;;;;;;6.90;6.15;;;;;;;31.38;61.66;100874.34;5119381;27;65285;-40
2021/06/20 01:19:54;;;;;;;5.93;5.38;;;;;;;31.32;62.69;100861.66;5122287;27;69757;-41
2021/06/20 01:29:04;;;;;;;6.57;5.47;;;;;;;31.41;62.55;100865.75;5070651;27;65861;-41
2021/06/20 01:31:37;;;;;;;9.95;5.63;;;;;;;31.51;61.82;100878.78;5122579;27;69979;-40
2021/06/20 01:35:04;;;;;;;10.70;5.78;;;;;;;31.43;62.44;100863.66;5044916;28;66280;-40
2021/06/20 01:40:26;;;;;;;6.10;5.43;;;;;;;31.58;62.66;100885.78;5046783;28;65931;-41
2021/06/20 01:42:58;;;;;;;5.40;4.63;;;;;;;31.58;62.90;100883.09;5048624;28;67812;-41
2021/06/20 01:45:47;;;;;;;5.85;5.35;;;;;;;31.61;62.40;100887.22;5052447;28;66581;-37
2021/06/20 01:54:15;;;;;;;8.05;5.22;;;;;;;31.71;62.70;100889.44;5051442;28;69714;-38
2021/06/20 01:56:46;;;;;;;7.60;5.53;;;;;;;31.74;63.15;100891.69;5047355;28;65874;-38
2021/06/20 02:00:14;;;;;;;15.68;5.50;;;;;;;31.77;63.59;100893.94;5051962;28;70222;-38
2021/06/20 02:03:03;;;;;;;11.15;5.05;;;;;;;31.81;64.46;100892.44;4972519;28;65871;-37
2021/06/20 02:05:35;;;;;;;6.90;5.28;;;;;;;31.84;63.46;100897.41;4997680;28;70043;-38
2021/06/20 02:08:08;;;;;;;13.02;5.65;;;;;;;31.60;63.81;100848.44;4995357;28;64525;-37
2021/06/20 02:14:06;;;;;;;6.07;4.68;;;;;;;31.94;63.06;100895.03;5011196;28;66804;-38
2021/06/20 02:16:37;;;;;;;6.43;5.05;;;;;;;31.97;62.90;100896.44;5007906;28;69937;-47
2021/06/20 02:19:27;;;;;;;9.20;4.70;;;;;;;32.00;62.96;100899.53;5003829;28;66138;-39
2021/06/20 02:21:59;;;;;;;15.60;4.73;;;;;;;32.02;62.73;100904.75;5007301;28;69687;-37
2021/06/20 02:24:30;;;;;;;6.07;4.50;;;;;;;31.95;62.78;100883.09;5009412;28;65163;-37
2021/06/20 02:27:20;;;;;;;7.30;4.47;;;;;;;32.05;62.83;100907.81;5008411;28;69238;-41
2021/06/20 02:30:11;;;;;;;8.13;4.35;;;;;;;32.08;62.71;100894.88;5008913;28;66321;-37
2021/06/20 02:32:42;;;;;;;7.65;3.90;;;;;;;32.12;63.00;100887.91;5010179;27;69068;-38
2021/06/20 02:35:57;;;;;;;8.63;4.60;;;;;;;32.03;63.28;100885.50;5112148;27;66067;-38
2021/06/20 02:41:36;;;;;;;13.63;5.25;;;;;;;32.09;63.89;100891.09;5027073;28;65816;-39
2021/06/20 02:44:07;;;;;;;5.07;3.83;;;;;;;32.11;63.00;100887.09;5028436;28;69967;-37
2021/06/20 02:46:38;;;;;;;18.30;4.27;;;;;;;32.16;63.12;100879.09;5025704;28;66038;-38
2021/06/20 02:49:10;;;;;;;5.10;4.20;;;;;;;32.21;62.46;100881.13;5030008;28;69786;-37
2021/06/20 02:51:44;;;;;;;11.50;4.28;;;;;;;32.23;62.23;100879.00;5027958;28;65944;-38
2021/06/20 02:54:15;;;;;;;6.13;4.10;;;;;;;32.26;62.13;100873.09;5028421;28;69905;-36
2021/06/20 02:57:05;;;;;;;15.75;4.32;;;;;;;32.23;62.83;100862.69;5002769;28;65100;-37
2021/06/20 03:02:43;;;;;;;12.95;4.20;;;;;;;32.34;62.32;100853.78;5028993;28;66041;-36
2021/06/20 03:05:15;;;;;;;11.43;4.47;;;;;;;32.33;61.87;100849.41;5025379;28;69185;-37
2021/06/20 03:07:46;;;;;;;;;;;;;;;32.17;63.25;100845.44;5027354;28;66201;-35
2021/06/20 03:10:18;;;;;;;7.13;3.65;;;;;;;32.33;62.15;100840.44;5027146;28;70149;-37
2021/06/20 03:12:49;;;;;;;7.75;3.53;;;;;;;32.24;58.72;100829.09;5026790;28;65963;-36
2021/06/20 03:15:39;;;;;;;11.48;4.07;;;;;;;32.15;57.43;100828.59;5030459;28;70165;-36
2021/06/20 03:18:29;;;;;;;4.88;3.75;;;;;;;32.02;57.18;100818.75;5019379;28;66205;-36
2021/06/20 03:21:00;;;;;;;4.30;3.80;;;;;;;31.93;55.93;100835.56;5033249;28;69985;-36
2021/06/20 03:23:50;;;;;;;7.40;4.05;;;;;;;31.81;55.05;100819.19;5035573;28;65320;-36
2021/06/20 03:26:22;;;;;;;5.07;3.70;;;;;;;31.71;54.28;100827.06;5040640;28;70270;-36
2021/06/20 03:28:54;;;;;;;4.00;3.60;;;;;;;31.59;54.39;100808.00;5034095;28;66823;-36
2021/06/20 03:31:43;;;;;;;11.88;4.03;;;;;;;31.48;52.97;100812.31;5032732;28;69445;-36
2021/06/20 03:40:45;;;;;;;7.07;3.78;;;;;;;31.19;51.34;100778.59;5033188;28;66166;-37
2021/06/20 03:43:16;;;;;;;15.32;3.88;;;;;;;31.09;51.78;100776.44;5061103;28;69007;-37
2021/06/20 03:46:06;;;;;;;11.27;3.65;;;;;;;30.97;50.26;100789.03;5039954;28;65209;-38
2021/06/20 03:48:56;;;;;;;10.25;3.08;;;;;;;30.90;50.29;100763.91;5057856;28;70049;-36
2021/06/20 03:51:28;;;;;;;26.45;3.83;;;;;;;30.83;49.34;100771.25;5057547;28;65345;-37
2021/06/20 03:54:18;;;;;;;15.27;3.35;;;;;;;30.73;48.40;100769.88;5061142;28;70060;-36
2021/06/20 03:57:30;;;;;;;9.18;3.45;;;;;;;30.65;50.15;100759.31;4998279;28;66227;-36
2021/06/20 04:00:01;;;;;;;15.52;3.50;;;;;;;30.73;49.74;100761.75;4998461;28;69912;-35
2021/06/20 04:02:32;;;;;;;7.83;3.70;;;;;;;30.73;49.66;100748.19;5003418;28;65415;-36
2021/06/20 04:07:54;;;;;;;5.18;3.30;;;;;;;30.73;47.76;100745.50;4997601;28;65081;-36
2021/06/20 04:10:26;;;;;;;10.17;3.90;;;;;;;30.69;47.84;100746.97;4997934;28;69468;-35
2021/06/20 04:12:59;;;;;;;13.18;3.50;;;;;;;30.61;47.86;100730.19;5000840;28;64989;-36
2021/06/20 04:21:29;;;;;;;13.82;2.67;;;;;;;30.63;46.92;100747.88;5019077;28;69597;-36
2021/06/20 04:27:09;;;;;;;16.75;3.35;;;;;;;30.66;47.31;100749.31;5018116;28;69242;-36
2021/06/20 04:29:40;;;;;;;12.77;2.80;;;;;;;30.66;47.89;100739.28;5027894;28;66093;-35
2021/06/20 04:32:12;;;;;;;7.20;3.17;;;;;;;30.70;48.08;100735.09;5022227;28;70221;-37
2021/06/20 04:34:43;;;;;;;13.00;2.45;;;;;;;30.71;48.13;100731.34;5083134;27;66045;-36
2021/06/20 04:40:05;;;;;;;23.45;3.90;;;;;;;30.64;47.26;100735.97;5121389;27;66121;-38
2021/06/20 04:43:04;;;;;;;9.82;2.88;;;;;;;30.54;46.19;100724.84;5117021;27;69031;-37
2021/06/20 04:45:35;;;;;;;16.67;3.10;;;;;;;30.56;46.69;100747.09;5117147;27;66244;-37
2021/06/20 04:48:25;;;;;;;14.03;2.77;;;;;;;30.42;45.75;100738.28;5116293;27;69694;-38
2021/06/20 04:50:56;;;;;;;9.23;2.75;;;;;;;30.38;45.43;100728.09;5118709;27;66273;-37
2021/06/20 04:53:27;;;;;;;20.33;3.53;;;;;;;30.38;46.09;100730.81;5115084;27;70681;-37
2021/06/20 04:58:48;;;;;;;14.70;2.92;;;;;;;30.37;50.04;100724.56;5117199;27;69467;-37
2021/06/20 05:04:45;;;;;;;19.88;3.50;;;;;;;30.44;48.37;100705.56;5118321;27;69766;-37
2021/06/20 05:07:17;;;;;;;13.20;3.25;;;;;;;30.48;47.86;100710.31;5085550;27;65894;-37
2021/06/20 05:09:50;;;;;;;16.60;3.42;;;;;;;30.50;46.85;100712.78;5116683;27;69240;-36
2021/06/20 05:12:21;;;;;;;19.83;2.93;;;;;;;30.44;46.46;100692.03;5115111;27;66605;-36
2021/06/20 05:14:52;;;;;;;;;;;;;;;30.35;45.80;100701.47;5116013;27;69038;-36
2021/06/20 05:17:41;;;;;;;14.50;2.95;;;;;;;30.48;44.71;100694.06;5111999;27;65293;-36
2021/06/20 05:20:56;;;;;;;7.03;2.63;;;;;;;30.49;43.63;100694.91;5113512;27;70460;-36
2021/06/20 05:23:46;;;;;;;7.05;3.20;;;;;;;30.58;44.05;100682.72;5066167;27;66335;-36
2021/06/20 05:26:18;;;;;;;10.05;2.80;;;;;;;30.61;43.81;100665.22;5044157;28;70012;-35
2021/06/20 05:28:49;;;;;;;9.50;2.22;;;;;;;30.62;42.57;100677.69;5069579;27;65364;-35
2021/06/20 05:31:49;;;;;;;9.25;2.50;;;;;;;30.60;42.97;100667.09;5072490;27;69186;-36
2021/06/20 05:34:39;;;;;;;7.20;2.72;;;;;;;30.58;41.88;100654.84;4987232;28;65745;-36
2021/06/20 05:37:46;;;;;;;11.75;2.92;;;;;;;30.58;42.33;100631.28;4991569;28;70686;-36
2021/06/20 05:40:36;;;;;;;5.03;2.55;;;;;;;30.58;41.54;100647.53;4989815;28;65920;-36
2021/06/20 05:43:08;;;;;;;10.85;2.20;;;;;;;30.58;42.35;100634.00;4996208;28;69855;-36
2021/06/20 05:46:05;;;;;;;8.18;2.60;;;;;;;30.74;41.90;100643.41;4920907;28;66115;-37
2021/06/20 05:48:55;;;;;;;4.32;2.95;;;;;;;30.69;41.37;100630.53;4922556;28;69164;-35
2021/06/20 05:51:26;;;;;;;5.70;2.40;;;;;;;30.80;41.04;100628.19;4922740;28;66050;-36
2021/06/20 05:53:57;;;;;;;5.43;2.20;;;;;;;30.82;41.15;100617.97;4924067;28;69178;-37
2021/06/20 05:56:29;;;;;;;3.43;2.50;;;;;;;30.82;41.00;100617.97;4926330;28;65266;-35
2021/06/20 05:59:00;;;;;;;3.45;2.20;;;;;;;30.85;40.58;100612.91;4997663;28;69967;-35
2021/06/20 06:01:50;;;;;;;2.97;2.67;;;;;;;30.80;39.98;100603.81;5002851;28;66054;-36
2021/06/20 06:04:23;;;;;;;4.55;2.47;;;;;;;30.88;40.31;100593.50;5005597;28;69885;-37
2021/06/20 06:07:13;;;;;;;2.85;2.20;;;;;;;30.85;39.96;100593.13;4994720;28;64796;-36
2021/06/20 06:10:06;;;;;;;3.08;1.75;;;;;;;30.74;39.87;100562.19;5004028;28;69816;-35
2021/06/20 06:12:58;;;;;;;2.47;2.25;;;;;;;30.87;40.05;100572.91;5033037;28;64737;-36
2021/06/20 06:15:30;;;;;;;3.65;2.60;;;;;;;30.97;39.98;100575.03;5033430;28;69303;-35
2021/06/20 06:18:02;;;;;;;4.97;2.33;;;;;;;31.03;40.44;100565.19;5032751;28;65256;-35
2021/06/20 06:20:33;;;;;;;2.80;2.55;;;;;;;30.95;40.20;100552.78;5040002;28;69654;-35
2021/06/20 06:23:05;;;;;;;3.33;2.05;;;;;;;31.03;39.22;100555.16;5021038;28;65887;-35
2021/06/20 06:25:36;;;;;;;2.75;2.53;;;;;;;31.01;39.77;100554.59;5036492;28;69060;-36
2021/06/20 06:28:09;;;;;;;3.35;2.17;;;;;;;31.04;39.46;100550.59;5036347;28;65325;-41
2021/06/20 06:30:40;;;;;;;5.72;2.30;;;;;;;31.05;39.39;100550.34;5037637;28;69827;-36
2021/06/20 06:33:11;;;;;;;7.97;2.30;;;;;;;31.10;39.84;100539.66;5033891;28;65483;-36
2021/06/20 06:35:42;;;;;;;3.23;2.43;;;;;;;31.10;39.78;100528.81;5023808;28;69996;-35
2021/06/20 06:38:14;;;;;;;3.07;2.47;;;;;;;31.16;39.40;100527.91;5046418;28;66590;-37
2021/06/20 06:40:45;;;;;;;6.80;2.42;;;;;;;31.20;39.44;100527.44;5025220;28;69174;-35
2021/06/20 06:43:34;;;;;;;2.42;2.10;;;;;;;31.23;39.35;100516.97;5021979;28;66675;-36
2021/06/20 06:46:06;;;;;;;4.07;1.92;;;;;;;31.23;39.10;100500.72;5034960;28;68982;-35
2021/06/20 06:48:56;;;;;;;4.80;2.35;;;;;;;31.29;39.12;100494.38;5035010;28;65923;-36
2021/06/20 06:51:27;;;;;;;5.43;2.40;;;;;;;31.31;38.83;100488.69;5132418;27;69843;-35
2021/06/20 06:53:58;;;;;;;3.93;2.10;;;;;;;31.35;39.20;100487.19;5115768;27;65943;-35
2021/06/20 06:56:29;;;;;;;4.13;2.23;;;;;;;31.39;38.14;100493.81;5114074;27;70549;-35
2021/06/20 06:59:01;;;;;;;2.63;2.13;;;;;;;31.44;38.49;100487.69;5109140;27;65170;-35
2021/06/20 07:04:41;;;;;;;3.30;2.15;;;;;;;31.28;38.37;100459.34;5103065;27;66061;-37
2021/06/20 07:07:31;;;;;;;4.45;1.98;;;;;;;31.55;38.39;100481.47;5113840;27;70677;-37
2021/06/20 07:12:53;;;;;;;7.20;2.22;;;;;;;31.64;37.94;100479.22;5122727;27;70212;-37
2021/06/20 07:15:42;;;;;;;3.77;2.07;;;;;;;31.61;38.48;100473.22;5128712;27;66962;-37
2021/06/20 07:18:34;;;;;;;4.00;2.08;;;;;;;31.67;37.55;100478.75;5112878;27;69091;-36
2021/06/20 07:21:06;;;;;;;4.28;2.35;;;;;;;31.79;37.71;100479.59;5084880;27;66635;-37
2021/06/20 07:23:38;;;;;;;6.70;1.73;;;;;;;31.80;37.71;100481.25;5107736;27;69243;-36
2021/06/20 07:26:40;;;;;;;4.43;2.10;;;;;;;31.85;37.39;100470.50;5084489;27;66102;-36
2021/06/20 07:29:12;;;;;;;5.55;2.10;;;;;;;31.84;37.52;100460.69;5112551;27;69335;-36
2021/06/20 07:32:01;;;;;;;9.93;1.77;;;;;;;31.80;37.15;100459.53;5103052;27;66019;-37
2021/06/20 07:35:09;;;;;;;10.55;1.90;;;;;;;31.80;36.94;100467.69;5111680;27;70288;-36
2021/06/20 07:38:17;;;;;;;8.48;2.45;;;;;;;31.77;37.05;100449.16;5091341;27;66701;-37
2021/06/20 07:40:49;;;;;;;17.30;2.15;;;;;;;31.83;37.72;100438.19;5103880;27;69740;-39
2021/06/20 07:43:38;;;;;;;10.02;2.20;;;;;;;31.87;38.19;100438.53;5104252;27;65675;-35
2021/06/20 07:46:46;;;;;;;19.08;2.10;;;;;;;31.97;38.25;100451.53;5105987;27;69686;-37
2021/06/20 07:49:19;;;;;;;15.55;2.28;;;;;;;31.95;38.38;100438.19;5107297;27;66011;-37
2021/06/20 07:52:09;;;;;;;17.10;2.10;;;;;;;32.03;38.63;100434.28;5073856;27;69637;-36
2021/06/20 07:54:58;;;;;;;9.98;2.20;;;;;;;31.93;38.32;100434.06;5104229;27;65985;-36
2021/06/20 07:57:48;;;;;;;11.85;2.33;;;;;;;31.97;38.89;100430.66;5113213;27;70068;-37
2021/06/20 08:00:37;;;;;;;13.48;2.35;;;;;;;32.03;38.81;100435.13;5106004;27;66061;-37
2021/06/20 08:03:34;;;;;;;9.10;2.08;;;;;;;32.06;38.99;100433.81;5041446;28;69042;-37
2021/06/20 08:06:25;;;;;;;10.63;2.28;;;;;;;32.08;39.69;100425.44;5003855;28;66077;-38
2021/06/20 08:11:46;;;;;;;4.70;2.40;;;;;;;32.11;39.68;100414.94;5028975;28;66059;-38
2021/06/20 08:14:19;;;;;;;;;;;;;;;31.84;39.53;100420.03;5026819;28;69070;-36
2021/06/20 08:17:23;;;;;;;11.00;1.92;;;;;;;31.92;38.83;100416.97;5025783;28;65267;-38
2021/06/20 08:19:54;;;;;;;6.82;1.88;;;;;;;32.02;39.30;100403.63;4964952;28;71887;-37
2021/06/20 08:22:26;;;;;;;4.67;2.17;;;;;;;32.02;39.17;100417.19;4971939;28;66024;-38
2021/06/20 08:24:58;;;;;;;8.07;2.42;;;;;;;32.03;38.95;100424.25;4965797;28;69932;-36
2021/06/20 08:30:37;;;;;;;11.25;2.40;;;;;;;31.97;38.05;100425.22;4961843;28;70670;-36
2021/06/20 08:33:26;;;;;;;5.43;2.17;;;;;;;31.90;38.42;100419.09;4963419;28;65442;-37
2021/06/20 08:35:58;;;;;;;10.98;2.72;;;;;;;31.97;38.01;100422.50;4964514;28;70514;-38
2021/06/20 08:38:29;;;;;;;2.65;1.95;;;;;;;31.93;38.04;100402.38;4963228;28;66116;-37
2021/06/20 08:41:19;;;;;;;10.07;2.78;;;;;;;31.89;37.59;100420.13;4971265;28;70021;-37
2021/06/20 08:43:51;;;;;;;5.40;2.33;;;;;;;31.98;39.06;100415.19;4973695;28;66072;-38
2021/06/20 08:46:21;;;;;;;;;;;;;;;31.71;39.56;100425.72;5003226;28;69835;-38
2021/06/20 08:48:53;;;;;;;30.08;3.25;;;;;;;31.95;39.55;100426.53;5004893;28;66702;-37
2021/06/20 08:51:25;;;;;;;37.65;2.97;;;;;;;31.95;39.46;100416.50;5013358;28;68727;-37
2021/06/20 08:53:57;;;;;;;16.27;3.30;;;;;;;31.91;39.74;100399.06;5009618;28;65510;-39
2021/06/20 08:56:29;;;;;;;27.38;4.63;;;;;;;32.04;40.45;100409.66;5085243;27;69095;-38
2021/06/20 09:02:08;;;;;;;29.35;3.72;;;;;;;32.04;41.37;100417.78;5111075;27;73067;-39
2021/06/20 09:04:39;;;;;;;22.13;3.75;;;;;;;32.20;43.55;100428.94;5107639;27;65567;-38
2021/06/20 09:07:30;;;;;;;17.30;3.35;;;;;;;32.33;46.49;100417.81;5084291;27;69130;-40
2021/06/20 09:10:12;;;;;;;16.27;4.03;;;;;;;32.62;48.63;100415.13;5106642;27;66221;-42
2021/06/20 09:12:59;;;;;;;10.27;4.57;;;;;;;32.50;50.06;100360.91;5119807;27;69801;-39
2021/06/20 09:16:02;;;;;;;6.28;4.13;;;;;;;32.48;52.83;100322.28;5119895;27;66195;-39
2021/06/20 09:18:35;;;;;;;12.75;4.13;;;;;;;33.13;50.06;100405.19;5103956;27;70237;-39
2021/06/20 09:24:00;;;;;;;8.23;4.15;;;;;;;33.35;51.79;100413.44;5109060;27;70784;-38
2021/06/20 09:26:54;;;;;;;15.77;3.35;;;;;;;33.35;53.00;100408.81;5116593;27;64787;-38
2021/06/20 09:32:22;;;;;;;8.82;3.45;;;;;;;33.55;50.86;100399.34;5108201;27;65352;-38
2021/06/20 09:34:55;;;;;;;16.52;4.40;;;;;;;33.62;50.72;100402.69;5091393;27;70346;-38
2021/06/20 09:37:46;;;;;;;10.70;4.07;;;;;;;33.62;50.83;100397.25;5110113;27;65523;-43
2021/06/20 09:40:18;;;;;;;9.52;3.28;;;;;;;33.71;50.53;100406.66;5107925;27;69851;-38
2021/06/20 09:43:15;;;;;;;10.25;3.60;;;;;;;33.71;50.95;100412.09;5100946;27;66047;-39
2021/06/20 09:46:10;;;;;;;6.28;3.80;;;;;;;33.76;50.76;100408.59;5121906;27;69999;-39
2021/06/20 09:48:41;;;;;;;10.35;4.40;;;;;;;33.87;50.14;100415.00;5119358;27;65881;-38
2021/06/20 09:51:31;;;;;;;8.43;4.00;;;;;;;33.84;50.35;100421.78;5117969;27;68744;-38
2021/06/20 09:54:39;;;;;;;6.03;3.58;;;;;;;33.90;50.29;100423.47;5113187;27;66731;-38
2021/06/20 09:57:16;;;;;;;9.88;4.20;;;;;;;33.98;49.83;100425.75;5113832;27;70057;-39
2021/06/20 09:59:59;;;;;;;9.90;3.60;;;;;;;34.00;49.42;100430.97;5096985;27;65676;-38
2021/06/20 10:02:40;;;;;;;;;;;;;;;33.83;49.66;100435.63;5113830;27;70585;-38
2021/06/20 10:05:12;;;;;;;6.25;3.05;;;;;;;34.02;49.05;100434.25;5120321;27;65936;-38
2021/06/20 10:07:44;;;;;;;14.70;4.00;;;;;;;34.07;49.15;100426.16;5121280;27;69574;-38
2021/06/20 10:10:33;;;;;;;5.50;3.58;;;;;;;34.03;48.93;100425.00;5123085;27;65238;-41
2021/06/20 10:13:23;;;;;;;9.30;4.13;;;;;;;34.10;48.38;100419.41;5115313;27;70516;-39
2021/06/20 10:16:56;;;;;;;10.02;5.07;;;;;;;34.04;48.70;100407.59;5059798;28;66570;-39
2021/06/20 10:19:53;;;;;;;6.70;4.38;;;;;;;34.07;48.67;100415.28;4992290;28;70181;-38
2021/06/20 10:22:37;;;;;;;10.70;4.28;;;;;;;34.14;48.65;100431.44;4979069;28;66307;-39
2021/06/20 10:28:35;;;;;;;4.90;4.00;;;;;;;34.15;47.81;100428.44;4966938;28;65997;-39
2021/06/20 10:34:17;;;;;;;11.30;3.73;;;;;;;34.09;47.58;100445.81;4968150;28;65584;-39
2021/06/20 10:37:07;;;;;;;3.85;3.47;;;;;;;34.14;48.01;100443.16;4966852;28;70031;-39
2021/06/20 10:39:49;;;;;;;5.13;4.63;;;;;;;33.86;47.91;100397.84;4955294;28;66227;-39
2021/06/20 10:42:40;;;;;;;8.10;4.78;;;;;;;34.16;47.92;100441.00;4958257;28;69439;-39
2021/06/20 10:45:12;;;;;;;9.15;5.18;;;;;;;34.15;48.07;100439.34;4906645;28;65378;-38
2021/06/20 10:50:58;;;;;;;21.65;5.68;;;;;;;34.17;48.42;100448.09;4907571;28;65888;-37
2021/06/20 10:53:59;;;;;;;25.60;8.48;;;;;;;34.19;48.75;100456.81;4912623;28;69464;-38
2021/06/20 10:56:57;;;;;;;27.33;7.53;;;;;;;33.88;49.06;100413.91;4944690;28;66398;-39
2021/06/20 10:59:28;;;;;;;13.25;7.47;;;;;;;34.10;47.95;100474.69;4968154;28;69276;-38
2021/06/20 11:02:00;;;;;;;16.60;7.93;;;;;;;33.77;46.97;100454.59;4971573;28;65991;-39
2021/06/20 11:04:59;;;;;;;22.40;7.20;;;;;;;33.62;45.90;100473.41;4972127;28;69193;-39
2021/06/20 11:07:48;;;;;;;29.75;7.43;;;;;;;33.50;45.72;100495.22;5010244;28;65374;-38
2021/06/20 11:10:39;;;;;;;30.85;7.18;;;;;;;33.28;45.07;100505.19;5010070;28;69489;-39
2021/06/20 11:16:24;;;;;;;23.40;7.35;;;;;;;32.63;43.44;100479.25;5014090;28;70028;-37
2021/06/20 11:19:32;;;;;;;13.90;6.05;;;;;;;32.69;44.00;100529.88;5014041;28;66119;-37
2021/06/20 11:25:12;;;;;;;19.33;5.90;;;;;;;32.53;44.80;100536.06;5111852;27;65379;-38
2021/06/20 11:30:52;;;;;;;13.77;6.15;;;;;;;32.34;43.95;100538.88;5115111;27;65731;-37
2021/06/20 11:33:44;;;;;;;16.17;6.05;;;;;;;32.30;43.54;100562.16;5118208;27;69868;-36
2021/06/20 11:39:27;;;;;;;37.00;6.60;;;;;;;31.80;42.97;100519.22;5117469;27;69389;-38
2021/06/20 11:42:27;;;;;;;15.45;7.00;;;;;;;32.09;44.05;100568.19;5109141;27;65509;-37
2021/06/20 11:48:14;;;;;;;22.85;6.88;;;;;;;31.69;44.17;100503.75;5053670;28;65579;-38
2021/06/20 11:50:47;;;;;;;16.60;7.25;;;;;;;31.94;44.70;100555.91;5054787;28;70258;-39
2021/06/20 11:56:08;;;;;;;23.63;9.65;;;;;;;31.89;44.93;100577.47;5055396;28;70162;-39
2021/06/20 12:01:51;;;;;;;21.67;9.63;;;;;;;31.78;44.58;100573.66;5062494;28;70242;-40
2021/06/20 12:04:29;;;;;;;18.77;10.23;;;;;;;31.70;44.66;100581.31;5059944;28;65047;-41
2021/06/20 12:07:23;;;;;;;23.08;10.40;;;;;;;31.77;43.97;100617.31;5054325;28;70095;-38
2021/06/20 12:10:13;;;;;;;18.20;11.02;;;;;;;31.80;43.89;100654.81;5046597;28;65056;-37
2021/06/20 12:12:57;;;;;;;19.42;11.18;;;;;;;31.78;43.75;100656.91;5056249;28;70294;-39
2021/06/20 12:18:39;;;;;;;15.45;10.60;;;;;;;31.35;43.51;100604.53;5053409;28;70120;-38
2021/06/20 12:21:29;;;;;;;16.10;10.75;;;;;;;31.54;43.72;100643.31;5063430;27;66383;-38
2021/06/20 12:24:39;;;;;;;23.77;11.55;;;;;;;31.34;43.74;100648.97;5115302;27;70108;-38
2021/06/20 12:27:12;;;;;;;22.58;11.02;;;;;;;31.07;43.37;100588.88;5010940;28;65349;-39
2021/06/20 12:33:13;;;;;;;31.35;13.25;;;;;;;31.27;46.87;100680.75;5016087;28;66101;-38
2021/06/20 12:39:18;;;;;;;37.28;12.95;;;;;;;31.27;45.63;100683.44;5003706;28;64548;-43
2021/06/20 12:42:08;;;;;;;36.65;12.65;;;;;;;31.15;44.03;100666.31;5008969;28;70101;-42
2021/06/20 12:44:58;;;;;;;15.30;12.77;;;;;;;31.21;43.75;100684.38;5016458;28;65503;-40
2021/06/20 12:47:32;;;;;;;17.40;12.40;;;;;;;31.19;43.34;100720.88;5011515;28;70326;-40
2021/06/20 12:50:21;;;;;;;17.00;12.60;;;;;;;31.20;42.80;100723.34;5018164;28;66072;-41
2021/06/20 12:52:53;;;;;;;21.83;12.50;;;;;;;31.13;42.40;100709.88;5015271;28;70066;-40
2021/06/20 12:55:28;;;;;;;14.68;11.23;;;;;;;30.76;42.37;100645.88;5010103;28;65377;-40
2021/06/20 12:58:07;;;;;;;20.35;12.93;;;;;;;30.53;42.10;100614.88;5008730;28;70131;-41
2021/06/20 13:00:39;;;;;;;19.08;11.85;;;;;;;31.05;41.93;100721.03;5009535;28;66166;-40
2021/06/20 13:03:11;;;;;;;20.13;11.20;;;;;;;30.64;42.01;100668.28;5039044;27;70817;-40
2021/06/20 13:06:08;;;;;;;22.58;12.52;;;;;;;30.92;41.37;100732.00;5104005;27;66366;-42
2021/06/20 13:11:49;;;;;;;22.00;13.00;;;;;;;30.88;42.62;100730.78;5111060;27;65404;-42
2021/06/20 13:14:24;;;;;;;14.98;11.60;;;;;;;30.92;42.31;100738.25;5111341;27;69792;-41
2021/06/20 13:16:56;;;;;;;18.27;11.35;;;;;;;30.86;41.79;100744.53;5110979;27;65249;-41
2021/06/20 13:19:29;;;;;;;;;;;;;;;30.61;41.67;100768.91;5092896;27;70043;-43
2021/06/20 13:22:01;;;;;;;16.35;10.98;;;;;;;30.77;41.78;100767.53;5115187;27;66466;-42
2021/06/20 13:24:32;;;;;;;12.23;11.03;;;;;;;30.76;41.31;100770.44;5092440;27;69994;-44
2021/06/20 13:27:04;;;;;;;12.93;11.52;;;;;;;30.75;41.04;100779.63;5116084;27;66933;-41
2021/06/20 13:29:42;;;;;;;31.08;11.30;;;;;;;30.69;43.59;100771.34;5111066;27;70278;-40
2021/06/20 13:32:32;;;;;;;42.92;11.27;;;;;;;30.65;44.26;100770.13;5113330;27;65845;-42
2021/06/20 13:35:24;;;;;;;28.85;11.85;;;;;;;30.68;43.42;100775.09;5103766;27;69357;-41
2021/06/20 13:41:22;;;;;;;20.98;11.05;;;;;;;30.56;41.89;100797.69;5112778;27;70091;-42
2021/06/20 13:43:53;;;;;;;14.07;11.07;;;;;;;30.46;41.97;100803.59;5081952;27;65915;-43
2021/06/20 13:49:14;;;;;;;18.13;11.27;;;;;;;30.39;41.09;100825.28;5104007;27;66224;-42
2021/06/20 13:51:47;;;;;;;17.02;10.68;;;;;;;30.37;41.68;100826.56;5108796;27;69489;-41
2021/06/20 13:54:38;;;;;;;20.02;11.77;;;;;;;30.26;40.72;100841.63;5109906;27;65889;-42
2021/06/20 13:57:29;;;;;;;20.17;12.05;;;;;;;30.32;43.72;100848.06;5111666;27;70042;-41
2021/06/20 14:00:00;;;;;;;26.35;11.80;;;;;;;30.31;43.89;100846.38;5106722;27;66099;-41
2021/06/20 14:02:38;;;;;;;23.42;11.57;;;;;;;30.30;43.29;100852.84;5105068;27;70128;-41
2021/06/20 14:05:10;;;;;;;30.70;11.38;;;;;;;30.27;43.77;100846.81;5108025;27;66086;-41
2021/06/20 14:07:41;;;;;;;;;;;;;;;30.08;43.78;100838.78;5111573;27;70759;-42
2021/06/20 14:10:31;;;;;;;17.42;11.05;;;;;;;30.21;43.43;100850.34;5114885;27;66324;-44
2021/06/20 14:13:02;;;;;;;17.70;11.07;;;;;;;30.22;42.67;100868.28;5111211;27;69378;-41
2021/06/20 14:15:34;;;;;;;20.42;12.32;;;;;;;30.22;42.43;100872.84;5114885;27;66218;-43
2021/06/20 14:18:07;;;;;;;18.00;11.48;;;;;;;30.16;42.29;100877.22;5107280;27;69856;-42
2021/06/20 14:20:40;;;;;;;18.33;11.50;;;;;;;30.19;42.24;100898.44;5109268;27;66325;-42
2021/06/20 14:23:11;;;;;;;13.55;11.02;;;;;;;30.20;41.83;100902.81;5106335;27;70180;-42
2021/06/20 14:26:01;;;;;;;12.25;11.13;;;;;;;30.14;41.46;100898.25;5104689;27;65553;-42
2021/06/20 14:29:08;;;;;;;13.38;11.13;;;;;;;30.17;41.70;100910.50;5106139;27;70290;-42
2021/06/20 14:31:40;;;;;;;12.45;11.38;;;;;;;30.12;41.23;100911.19;5103030;27;65662;-41
2021/06/20 14:34:29;;;;;;;15.88;10.52;;;;;;;30.09;41.51;100922.44;5108678;27;70170;-42
2021/06/20 14:37:01;;;;;;;10.55;9.45;;;;;;;30.08;41.00;100918.03;5107962;27;66034;-41
2021/06/20 14:39:33;;;;;;;13.00;10.07;;;;;;;30.02;40.75;100906.22;5112774;27;70327;-41